Colfax, Indiana
Current Conditions -  °F | °C
As of 9:55 PM on Tuesday 21 Oct 2014 (Local Time) from KFKR Reporting Station
Clear Clear  
Wind Chill: 41°   Ceiling: Unl
Heat Index: 44°   Visibility: 10mi
Dew Point: 41°   Wind: 6mph
Humidity: 87%   Direction: 330°NNW
Pressure: 30.22"   Gusts: NA
Location:  40.2°N, 86.67°W
Report Text: KFKR 220155Z AUTO 33005KT 10SM CLR 07/05 A3022 RMK AO2 T00680048
Loading
Personal Weather Stations






























Interactive Weather Map
Tropical Storm Tracking
New forecast layout! Learn more

10-Day Weather Forecast

Advertisements
Track Severe Weather on mobile